sensor_id;sensor_type;location;lat;lon;timestamp;P1;durP1;ratioP1;P2;durP2;ratioP2
17451;SDS011;8843;48.838;9.324;2022-08-16T00:01:58;2.33;;;2.07;;
17451;SDS011;8843;48.838;9.324;2022-08-16T00:04:26;2.40;;;2.20;;
17451;SDS011;8843;48.838;9.324;2022-08-16T00:06:53;4.17;;;2.43;;
17451;SDS011;8843;48.838;9.324;2022-08-16T00:09:21;3.20;;;2.33;;
17451;SDS011;8843;48.838;9.324;2022-08-16T00:11:48;4.00;;;2.57;;
17451;SDS011;8843;48.838;9.324;2022-08-16T00:14:17;2.37;;;2.17;;
17451;SDS011;8843;48.838;9.324;2022-08-16T00:16:47;3.17;;;2.73;;
17451;SDS011;8843;48.838;9.324;2022-08-16T00:19:14;3.73;;;2.80;;
17451;SDS011;8843;48.838;9.324;2022-08-16T00:21:45;2.33;;;2.13;;
17451;SDS011;8843;48.838;9.324;2022-08-16T00:24:12;3.60;;;2.60;;
17451;SDS011;8843;48.838;9.324;2022-08-16T00:26:40;2.63;;;2.43;;
17451;SDS011;8843;48.838;9.324;2022-08-16T00:29:08;3.50;;;2.50;;
17451;SDS011;8843;48.838;9.324;2022-08-16T00:31:35;3.00;;;2.33;;
17451;SDS011;8843;48.838;9.324;2022-08-16T00:34:02;3.50;;;2.27;;
17451;SDS011;8843;48.838;9.324;2022-08-16T00:36:30;2.33;;;2.13;;
17451;SDS011;8843;48.838;9.324;2022-08-16T00:38:58;3.10;;;2.67;;
17451;SDS011;8843;48.838;9.324;2022-08-16T00:41:25;2.90;;;2.30;;
17451;SDS011;8843;48.838;9.324;2022-08-16T00:43:54;2.93;;;2.43;;
17451;SDS011;8843;48.838;9.324;2022-08-16T00:46:22;3.93;;;2.77;;
17451;SDS011;8843;48.838;9.324;2022-08-16T00:48:53;2.43;;;2.23;;
17451;SDS011;8843;48.838;9.324;2022-08-16T00:51:21;4.27;;;2.67;;
17451;SDS011;8843;48.838;9.324;2022-08-16T00:53:49;2.50;;;2.30;;
17451;SDS011;8843;48.838;9.324;2022-08-16T00:56:19;4.97;;;2.73;;
17451;SDS011;8843;48.838;9.324;2022-08-16T00:58:48;2.77;;;2.33;;
17451;SDS011;8843;48.838;9.324;2022-08-16T01:01:16;4.63;;;2.20;;
17451;SDS011;8843;48.838;9.324;2022-08-16T01:03:45;2.50;;;2.30;;
17451;SDS011;8843;48.838;9.324;2022-08-16T01:06:14;3.87;;;2.37;;
17451;SDS011;8843;48.838;9.324;2022-08-16T01:08:43;3.00;;;2.67;;
17451;SDS011;8843;48.838;9.324;2022-08-16T01:11:13;2.50;;;2.30;;
17451;SDS011;8843;48.838;9.324;2022-08-16T01:13:41;3.07;;;2.57;;
17451;SDS011;8843;48.838;9.324;2022-08-16T01:16:11;2.50;;;2.30;;
17451;SDS011;8843;48.838;9.324;2022-08-16T01:18:43;3.97;;;2.63;;
17451;SDS011;8843;48.838;9.324;2022-08-16T01:21:18;4.00;;;2.23;;
17451;SDS011;8843;48.838;9.324;2022-08-16T01:24:02;3.80;;;2.60;;
17451;SDS011;8843;48.838;9.324;2022-08-16T01:26:39;2.40;;;2.20;;
17451;SDS011;8843;48.838;9.324;2022-08-16T01:29:08;4.50;;;2.67;;
17451;SDS011;8843;48.838;9.324;2022-08-16T01:31:46;3.03;;;2.40;;
17451;SDS011;8843;48.838;9.324;2022-08-16T01:34:14;3.30;;;2.57;;
17451;SDS011;8843;48.838;9.324;2022-08-16T01:36:42;3.43;;;2.57;;
17451;SDS011;8843;48.838;9.324;2022-08-16T01:39:11;4.90;;;2.70;;
17451;SDS011;8843;48.838;9.324;2022-08-16T01:41:41;3.47;;;2.60;;
17451;SDS011;8843;48.838;9.324;2022-08-16T01:44:09;2.70;;;2.23;;
17451;SDS011;8843;48.838;9.324;2022-08-16T01:46:37;3.27;;;2.70;;
17451;SDS011;8843;48.838;9.324;2022-08-16T01:49:08;3.20;;;2.90;;
17451;SDS011;8843;48.838;9.324;2022-08-16T01:51:36;2.50;;;2.30;;
17451;SDS011;8843;48.838;9.324;2022-08-16T01:54:05;2.73;;;2.47;;
17451;SDS011;8843;48.838;9.324;2022-08-16T01:56:34;3.13;;;2.77;;
17451;SDS011;8843;48.838;9.324;2022-08-16T01:59:03;2.40;;;2.20;;
17451;SDS011;8843;48.838;9.324;2022-08-16T02:01:31;3.00;;;2.57;;
17451;SDS011;8843;48.838;9.324;2022-08-16T02:03:59;4.63;;;2.47;;
17451;SDS011;8843;48.838;9.324;2022-08-16T02:06:27;3.10;;;2.80;;
17451;SDS011;8843;48.838;9.324;2022-08-16T02:08:54;2.90;;;2.67;;
17451;SDS011;8843;48.838;9.324;2022-08-16T02:11:21;3.70;;;2.70;;
17451;SDS011;8843;48.838;9.324;2022-08-16T02:13:50;4.43;;;2.40;;
17451;SDS011;8843;48.838;9.324;2022-08-16T02:16:17;4.60;;;2.70;;
17451;SDS011;8843;48.838;9.324;2022-08-16T02:18:44;2.83;;;2.27;;
17451;SDS011;8843;48.838;9.324;2022-08-16T02:21:12;3.67;;;2.60;;
17451;SDS011;8843;48.838;9.324;2022-08-16T02:23:40;2.77;;;2.53;;
17451;SDS011;8843;48.838;9.324;2022-08-16T02:26:07;2.93;;;2.73;;
17451;SDS011;8843;48.838;9.324;2022-08-16T02:28:34;4.57;;;2.80;;
17451;SDS011;8843;48.838;9.324;2022-08-16T02:31:04;3.00;;;2.80;;
17451;SDS011;8843;48.838;9.324;2022-08-16T02:33:33;3.23;;;2.67;;
17451;SDS011;8843;48.838;9.324;2022-08-16T02:36:00;2.87;;;2.60;;
17451;SDS011;8843;48.838;9.324;2022-08-16T02:38:28;4.97;;;2.50;;
17451;SDS011;8843;48.838;9.324;2022-08-16T02:40:55;3.90;;;2.50;;
17451;SDS011;8843;48.838;9.324;2022-08-16T02:43:23;2.77;;;2.57;;
17451;SDS011;8843;48.838;9.324;2022-08-16T02:45:51;3.53;;;2.50;;
17451;SDS011;8843;48.838;9.324;2022-08-16T02:48:19;7.00;;;2.97;;
17451;SDS011;8843;48.838;9.324;2022-08-16T02:50:46;2.97;;;2.67;;
17451;SDS011;8843;48.838;9.324;2022-08-16T02:53:13;4.73;;;3.13;;
17451;SDS011;8843;48.838;9.324;2022-08-16T02:55:40;2.93;;;2.73;;
17451;SDS011;8843;48.838;9.324;2022-08-16T02:58:08;2.80;;;2.50;;
17451;SDS011;8843;48.838;9.324;2022-08-16T03:00:35;3.60;;;2.70;;
17451;SDS011;8843;48.838;9.324;2022-08-16T03:03:03;2.73;;;2.53;;
17451;SDS011;8843;48.838;9.324;2022-08-16T03:05:32;3.00;;;2.73;;
17451;SDS011;8843;48.838;9.324;2022-08-16T03:07:59;3.13;;;2.80;;
17451;SDS011;8843;48.838;9.324;2022-08-16T03:10:26;3.70;;;2.77;;
17451;SDS011;8843;48.838;9.324;2022-08-16T03:12:53;3.43;;;2.53;;
17451;SDS011;8843;48.838;9.324;2022-08-16T03:15:20;3.93;;;2.50;;
17451;SDS011;8843;48.838;9.324;2022-08-16T03:17:47;4.33;;;3.33;;
17451;SDS011;8843;48.838;9.324;2022-08-16T03:20:15;2.87;;;2.20;;
17451;SDS011;8843;48.838;9.324;2022-08-16T03:22:43;4.53;;;2.77;;
17451;SDS011;8843;48.838;9.324;2022-08-16T03:25:11;3.23;;;2.93;;
17451;SDS011;8843;48.838;9.324;2022-08-16T03:27:40;4.20;;;2.50;;
17451;SDS011;8843;48.838;9.324;2022-08-16T03:30:09;2.90;;;2.70;;
17451;SDS011;8843;48.838;9.324;2022-08-16T03:32:38;3.10;;;2.83;;
17451;SDS011;8843;48.838;9.324;2022-08-16T03:35:05;3.57;;;2.60;;
17451;SDS011;8843;48.838;9.324;2022-08-16T03:37:33;3.80;;;2.63;;
17451;SDS011;8843;48.838;9.324;2022-08-16T03:40:02;3.83;;;2.53;;
17451;SDS011;8843;48.838;9.324;2022-08-16T03:42:30;2.60;;;2.40;;
17451;SDS011;8843;48.838;9.324;2022-08-16T03:44:56;3.37;;;2.40;;
17451;SDS011;8843;48.838;9.324;2022-08-16T03:47:23;6.60;;;2.63;;
17451;SDS011;8843;48.838;9.324;2022-08-16T03:49:51;3.27;;;2.67;;
17451;SDS011;8843;48.838;9.324;2022-08-16T03:52:18;4.93;;;2.93;;
17451;SDS011;8843;48.838;9.324;2022-08-16T03:54:46;4.03;;;3.00;;
17451;SDS011;8843;48.838;9.324;2022-08-16T03:57:14;3.60;;;2.77;;
17451;SDS011;8843;48.838;9.324;2022-08-16T03:59:41;4.07;;;3.17;;
17451;SDS011;8843;48.838;9.324;2022-08-16T04:02:08;7.27;;;3.17;;
17451;SDS011;8843;48.838;9.324;2022-08-16T04:04:36;4.60;;;2.60;;
17451;SDS011;8843;48.838;9.324;2022-08-16T04:07:05;4.63;;;3.00;;
17451;SDS011;8843;48.838;9.324;2022-08-16T04:09:32;3.00;;;2.80;;
17451;SDS011;8843;48.838;9.324;2022-08-16T04:12:00;3.00;;;2.43;;
17451;SDS011;8843;48.838;9.324;2022-08-16T04:14:28;3.73;;;2.87;;
17451;SDS011;8843;48.838;9.324;2022-08-16T04:16:55;3.10;;;2.80;;
17451;SDS011;8843;48.838;9.324;2022-08-16T04:19:24;2.60;;;2.40;;
17451;SDS011;8843;48.838;9.324;2022-08-16T04:21:52;4.77;;;2.70;;
17451;SDS011;8843;48.838;9.324;2022-08-16T04:24:19;4.00;;;2.57;;
17451;SDS011;8843;48.838;9.324;2022-08-16T04:26:46;3.33;;;2.93;;
17451;SDS011;8843;48.838;9.324;2022-08-16T04:29:14;2.97;;;2.57;;
17451;SDS011;8843;48.838;9.324;2022-08-16T04:31:43;2.67;;;2.47;;
17451;SDS011;8843;48.838;9.324;2022-08-16T04:34:10;3.20;;;2.90;;
17451;SDS011;8843;48.838;9.324;2022-08-16T04:36:38;3.20;;;2.90;;
17451;SDS011;8843;48.838;9.324;2022-08-16T04:39:05;3.10;;;2.67;;
17451;SDS011;8843;48.838;9.324;2022-08-16T04:41:32;3.00;;;2.60;;
17451;SDS011;8843;48.838;9.324;2022-08-16T04:43:59;3.03;;;2.73;;
17451;SDS011;8843;48.838;9.324;2022-08-16T04:46:26;3.80;;;2.90;;
17451;SDS011;8843;48.838;9.324;2022-08-16T04:48:55;2.70;;;2.50;;
17451;SDS011;8843;48.838;9.324;2022-08-16T04:51:22;3.33;;;3.03;;
17451;SDS011;8843;48.838;9.324;2022-08-16T04:53:49;2.73;;;2.53;;
17451;SDS011;8843;48.838;9.324;2022-08-16T04:56:16;2.83;;;2.57;;
17451;SDS011;8843;48.838;9.324;2022-08-16T04:58:44;3.23;;;2.70;;
17451;SDS011;8843;48.838;9.324;2022-08-16T05:01:11;3.53;;;2.80;;
17451;SDS011;8843;48.838;9.324;2022-08-16T05:03:38;4.20;;;2.80;;
17451;SDS011;8843;48.838;9.324;2022-08-16T05:06:06;4.30;;;2.67;;
17451;SDS011;8843;48.838;9.324;2022-08-16T05:08:34;3.50;;;2.70;;
17451;SDS011;8843;48.838;9.324;2022-08-16T05:11:02;3.27;;;2.40;;
17451;SDS011;8843;48.838;9.324;2022-08-16T05:13:31;5.70;;;2.77;;
17451;SDS011;8843;48.838;9.324;2022-08-16T05:15:59;4.07;;;2.83;;
17451;SDS011;8843;48.838;9.324;2022-08-16T05:18:26;4.67;;;2.73;;
17451;SDS011;8843;48.838;9.324;2022-08-16T05:20:53;5.00;;;3.10;;
17451;SDS011;8843;48.838;9.324;2022-08-16T05:23:21;3.27;;;2.97;;
17451;SDS011;8843;48.838;9.324;2022-08-16T05:25:48;4.13;;;2.83;;
17451;SDS011;8843;48.838;9.324;2022-08-16T05:28:16;5.00;;;3.20;;
17451;SDS011;8843;48.838;9.324;2022-08-16T05:30:43;3.60;;;3.30;;
17451;SDS011;8843;48.838;9.324;2022-08-16T05:33:10;4.63;;;3.07;;
17451;SDS011;8843;48.838;9.324;2022-08-16T05:35:38;3.33;;;3.03;;
17451;SDS011;8843;48.838;9.324;2022-08-16T05:38:05;2.60;;;2.40;;
17451;SDS011;8843;48.838;9.324;2022-08-16T05:40:33;3.10;;;2.80;;
17451;SDS011;8843;48.838;9.324;2022-08-16T05:43:00;4.47;;;3.10;;
17451;SDS011;8843;48.838;9.324;2022-08-16T05:45:27;4.57;;;2.97;;
17451;SDS011;8843;48.838;9.324;2022-08-16T05:47:54;3.53;;;2.80;;
17451;SDS011;8843;48.838;9.324;2022-08-16T05:50:21;3.63;;;3.23;;
17451;SDS011;8843;48.838;9.324;2022-08-16T05:52:48;3.40;;;2.87;;
17451;SDS011;8843;48.838;9.324;2022-08-16T05:55:15;3.37;;;3.07;;
17451;SDS011;8843;48.838;9.324;2022-08-16T05:57:44;5.17;;;2.97;;
17451;SDS011;8843;48.838;9.324;2022-08-16T06:00:12;4.03;;;3.27;;
17451;SDS011;8843;48.838;9.324;2022-08-16T06:02:40;3.83;;;3.20;;
17451;SDS011;8843;48.838;9.324;2022-08-16T06:05:07;2.97;;;2.77;;
17451;SDS011;8843;48.838;9.324;2022-08-16T06:07:35;4.00;;;3.20;;
17451;SDS011;8843;48.838;9.324;2022-08-16T06:10:03;3.07;;;2.87;;
17451;SDS011;8843;48.838;9.324;2022-08-16T06:12:31;4.17;;;3.40;;
17451;SDS011;8843;48.838;9.324;2022-08-16T06:15:00;4.00;;;2.60;;
17451;SDS011;8843;48.838;9.324;2022-08-16T06:17:31;3.43;;;2.90;;
17451;SDS011;8843;48.838;9.324;2022-08-16T06:19:58;6.43;;;3.10;;
17451;SDS011;8843;48.838;9.324;2022-08-16T06:22:25;3.27;;;2.90;;
17451;SDS011;8843;48.838;9.324;2022-08-16T06:24:52;3.50;;;2.83;;
17451;SDS011;8843;48.838;9.324;2022-08-16T06:27:18;3.13;;;2.93;;
17451;SDS011;8843;48.838;9.324;2022-08-16T06:29:45;2.90;;;2.60;;
17451;SDS011;8843;48.838;9.324;2022-08-16T06:32:14;4.87;;;3.60;;
17451;SDS011;8843;48.838;9.324;2022-08-16T06:34:40;3.37;;;3.07;;
17451;SDS011;8843;48.838;9.324;2022-08-16T06:37:07;4.37;;;3.07;;
17451;SDS011;8843;48.838;9.324;2022-08-16T06:39:34;4.63;;;3.13;;
17451;SDS011;8843;48.838;9.324;2022-08-16T06:42:01;5.43;;;3.13;;
17451;SDS011;8843;48.838;9.324;2022-08-16T06:44:29;4.93;;;3.30;;
17451;SDS011;8843;48.838;9.324;2022-08-16T06:46:55;3.40;;;3.10;;
17451;SDS011;8843;48.838;9.324;2022-08-16T06:49:24;3.47;;;3.07;;
17451;SDS011;8843;48.838;9.324;2022-08-16T06:51:51;4.50;;;3.37;;
17451;SDS011;8843;48.838;9.324;2022-08-16T06:54:18;3.73;;;3.07;;
17451;SDS011;8843;48.838;9.324;2022-08-16T06:56:44;4.47;;;3.37;;
17451;SDS011;8843;48.838;9.324;2022-08-16T06:59:11;3.80;;;3.50;;
17451;SDS011;8843;48.838;9.324;2022-08-16T07:01:38;3.83;;;3.30;;
17451;SDS011;8843;48.838;9.324;2022-08-16T07:04:07;2.80;;;2.60;;
17451;SDS011;8843;48.838;9.324;2022-08-16T07:06:35;5.83;;;3.50;;
17451;SDS011;8843;48.838;9.324;2022-08-16T07:09:02;3.40;;;3.07;;
17451;SDS011;8843;48.838;9.324;2022-08-16T07:11:29;3.30;;;3.00;;
17451;SDS011;8843;48.838;9.324;2022-08-16T07:13:56;4.43;;;2.90;;
17451;SDS011;8843;48.838;9.324;2022-08-16T07:16:23;3.53;;;3.00;;
17451;SDS011;8843;48.838;9.324;2022-08-16T07:18:50;3.80;;;3.47;;
17451;SDS011;8843;48.838;9.324;2022-08-16T07:21:17;3.33;;;3.03;;
17451;SDS011;8843;48.838;9.324;2022-08-16T07:23:46;4.97;;;3.30;;
17451;SDS011;8843;48.838;9.324;2022-08-16T07:26:15;3.87;;;3.10;;
17451;SDS011;8843;48.838;9.324;2022-08-16T07:28:45;4.07;;;2.97;;
17451;SDS011;8843;48.838;9.324;2022-08-16T07:31:12;4.47;;;2.80;;
17451;SDS011;8843;48.838;9.324;2022-08-16T07:33:39;3.97;;;3.40;;
17451;SDS011;8843;48.838;9.324;2022-08-16T07:36:07;4.77;;;3.07;;
17451;SDS011;8843;48.838;9.324;2022-08-16T07:38:35;5.57;;;3.40;;
17451;SDS011;8843;48.838;9.324;2022-08-16T07:41:03;3.73;;;3.40;;
17451;SDS011;8843;48.838;9.324;2022-08-16T07:43:31;3.70;;;3.40;;
17451;SDS011;8843;48.838;9.324;2022-08-16T07:45:58;5.47;;;3.50;;
17451;SDS011;8843;48.838;9.324;2022-08-16T07:48:25;4.03;;;3.07;;
17451;SDS011;8843;48.838;9.324;2022-08-16T07:50:52;3.87;;;3.27;;
17451;SDS011;8843;48.838;9.324;2022-08-16T07:53:20;4.47;;;3.07;;
17451;SDS011;8843;48.838;9.324;2022-08-16T07:55:47;4.00;;;3.40;;
17451;SDS011;8843;48.838;9.324;2022-08-16T07:58:15;5.27;;;3.73;;
17451;SDS011;8843;48.838;9.324;2022-08-16T08:00:42;4.40;;;3.30;;
17451;SDS011;8843;48.838;9.324;2022-08-16T08:03:09;4.47;;;3.60;;
17451;SDS011;8843;48.838;9.324;2022-08-16T08:05:37;4.43;;;3.80;;
17451;SDS011;8843;48.838;9.324;2022-08-16T08:08:04;6.73;;;3.47;;
17451;SDS011;8843;48.838;9.324;2022-08-16T08:10:31;5.93;;;3.47;;
17451;SDS011;8843;48.838;9.324;2022-08-16T08:12:58;4.07;;;3.33;;
17451;SDS011;8843;48.838;9.324;2022-08-16T08:15:27;4.97;;;3.20;;
17451;SDS011;8843;48.838;9.324;2022-08-16T08:17:54;4.17;;;3.50;;
17451;SDS011;8843;48.838;9.324;2022-08-16T08:20:22;5.50;;;3.87;;
17451;SDS011;8843;48.838;9.324;2022-08-16T08:22:51;5.00;;;3.37;;
17451;SDS011;8843;48.838;9.324;2022-08-16T08:25:19;6.70;;;3.40;;
17451;SDS011;8843;48.838;9.324;2022-08-16T08:27:46;4.60;;;3.93;;
17451;SDS011;8843;48.838;9.324;2022-08-16T08:30:13;7.03;;;3.97;;
17451;SDS011;8843;48.838;9.324;2022-08-16T08:32:42;3.50;;;3.20;;
17451;SDS011;8843;48.838;9.324;2022-08-16T08:35:09;3.90;;;3.50;;
17451;SDS011;8843;48.838;9.324;2022-08-16T08:37:37;4.23;;;3.63;;
17451;SDS011;8843;48.838;9.324;2022-08-16T08:40:05;3.90;;;3.50;;
17451;SDS011;8843;48.838;9.324;2022-08-16T08:42:34;4.30;;;3.93;;
17451;SDS011;8843;48.838;9.324;2022-08-16T08:45:01;6.80;;;4.20;;
17451;SDS011;8843;48.838;9.324;2022-08-16T08:47:29;5.30;;;3.90;;
17451;SDS011;8843;48.838;9.324;2022-08-16T08:49:57;4.53;;;4.13;;
17451;SDS011;8843;48.838;9.324;2022-08-16T08:52:24;4.90;;;4.27;;
17451;SDS011;8843;48.838;9.324;2022-08-16T08:54:51;4.30;;;3.90;;
17451;SDS011;8843;48.838;9.324;2022-08-16T08:57:19;5.93;;;3.90;;
17451;SDS011;8843;48.838;9.324;2022-08-16T08:59:46;5.40;;;4.07;;
17451;SDS011;8843;48.838;9.324;2022-08-16T09:02:13;5.37;;;3.77;;
17451;SDS011;8843;48.838;9.324;2022-08-16T09:04:40;8.93;;;3.90;;
17451;SDS011;8843;48.838;9.324;2022-08-16T09:07:09;5.67;;;4.07;;
17451;SDS011;8843;48.838;9.324;2022-08-16T09:09:37;5.23;;;3.80;;
17451;SDS011;8843;48.838;9.324;2022-08-16T09:12:04;5.27;;;4.47;;
17451;SDS011;8843;48.838;9.324;2022-08-16T09:14:32;6.10;;;4.20;;
17451;SDS011;8843;48.838;9.324;2022-08-16T09:16:59;4.70;;;3.90;;
17451;SDS011;8843;48.838;9.324;2022-08-16T09:19:27;5.40;;;3.77;;
17451;SDS011;8843;48.838;9.324;2022-08-16T09:21:54;5.03;;;3.77;;
17451;SDS011;8843;48.838;9.324;2022-08-16T09:24:23;5.53;;;3.83;;
17451;SDS011;8843;48.838;9.324;2022-08-16T09:26:50;4.57;;;3.70;;
17451;SDS011;8843;48.838;9.324;2022-08-16T09:29:17;5.00;;;4.40;;
17451;SDS011;8843;48.838;9.324;2022-08-16T09:31:45;5.77;;;4.10;;
17451;SDS011;8843;48.838;9.324;2022-08-16T09:34:13;4.40;;;3.97;;
17451;SDS011;8843;48.838;9.324;2022-08-16T09:36:40;4.97;;;4.30;;
17451;SDS011;8843;48.838;9.324;2022-08-16T09:39:07;4.83;;;3.67;;
17451;SDS011;8843;48.838;9.324;2022-08-16T09:41:36;5.90;;;5.30;;
17451;SDS011;8843;48.838;9.324;2022-08-16T09:44:03;5.50;;;3.90;;
17451;SDS011;8843;48.838;9.324;2022-08-16T09:46:30;5.40;;;3.80;;
17451;SDS011;8843;48.838;9.324;2022-08-16T09:48:57;5.27;;;4.60;;
17451;SDS011;8843;48.838;9.324;2022-08-16T09:51:24;5.57;;;3.73;;
17451;SDS011;8843;48.838;9.324;2022-08-16T09:53:51;5.13;;;4.10;;
17451;SDS011;8843;48.838;9.324;2022-08-16T09:56:22;4.77;;;4.27;;
17451;SDS011;8843;48.838;9.324;2022-08-16T09:58:54;5.97;;;4.00;;
17451;SDS011;8843;48.838;9.324;2022-08-16T10:01:21;6.70;;;4.20;;
17451;SDS011;8843;48.838;9.324;2022-08-16T10:03:49;5.07;;;4.20;;
17451;SDS011;8843;48.838;9.324;2022-08-16T10:06:17;6.97;;;4.47;;
17451;SDS011;8843;48.838;9.324;2022-08-16T10:08:44;4.97;;;4.50;;
17451;SDS011;8843;48.838;9.324;2022-08-16T10:11:11;6.73;;;3.70;;
17451;SDS011;8843;48.838;9.324;2022-08-16T10:13:57;7.37;;;4.17;;
17451;SDS011;8843;48.838;9.324;2022-08-16T10:16:24;4.13;;;3.80;;
17451;SDS011;8843;48.838;9.324;2022-08-16T10:18:51;4.60;;;4.00;;
17451;SDS011;8843;48.838;9.324;2022-08-16T10:21:18;5.30;;;4.10;;
17451;SDS011;8843;48.838;9.324;2022-08-16T10:23:46;7.63;;;4.30;;
17451;SDS011;8843;48.838;9.324;2022-08-16T10:26:15;5.50;;;3.80;;
17451;SDS011;8843;48.838;9.324;2022-08-16T10:28:43;5.00;;;4.50;;
17451;SDS011;8843;48.838;9.324;2022-08-16T10:31:12;4.67;;;4.00;;
17451;SDS011;8843;48.838;9.324;2022-08-16T10:33:39;7.93;;;3.50;;
17451;SDS011;8843;48.838;9.324;2022-08-16T10:36:06;6.83;;;4.13;;
17451;SDS011;8843;48.838;9.324;2022-08-16T10:38:36;6.07;;;4.00;;
17451;SDS011;8843;48.838;9.324;2022-08-16T10:41:04;4.03;;;3.63;;
17451;SDS011;8843;48.838;9.324;2022-08-16T10:43:32;4.80;;;3.67;;
17451;SDS011;8843;48.838;9.324;2022-08-16T10:45:59;4.93;;;4.10;;
17451;SDS011;8843;48.838;9.324;2022-08-16T10:48:29;5.23;;;3.60;;
17451;SDS011;8843;48.838;9.324;2022-08-16T10:50:56;4.30;;;3.90;;
17451;SDS011;8843;48.838;9.324;2022-08-16T10:53:24;4.00;;;3.60;;
17451;SDS011;8843;48.838;9.324;2022-08-16T10:55:51;4.20;;;3.77;;
17451;SDS011;8843;48.838;9.324;2022-08-16T10:58:19;6.23;;;4.53;;
17451;SDS011;8843;48.838;9.324;2022-08-16T11:00:47;3.90;;;3.60;;
17451;SDS011;8843;48.838;9.324;2022-08-16T11:03:15;5.33;;;4.10;;
17451;SDS011;8843;48.838;9.324;2022-08-16T11:05:44;5.77;;;4.17;;
17451;SDS011;8843;48.838;9.324;2022-08-16T11:08:12;6.70;;;4.03;;
17451;SDS011;8843;48.838;9.324;2022-08-16T11:10:40;4.57;;;3.67;;
17451;SDS011;8843;48.838;9.324;2022-08-16T11:13:10;5.83;;;3.70;;
17451;SDS011;8843;48.838;9.324;2022-08-16T11:15:38;4.73;;;3.63;;
17451;SDS011;8843;48.838;9.324;2022-08-16T11:18:07;4.63;;;4.07;;
17451;SDS011;8843;48.838;9.324;2022-08-16T11:20:35;5.93;;;3.67;;
17451;SDS011;8843;48.838;9.324;2022-08-16T11:23:03;4.83;;;3.77;;
17451;SDS011;8843;48.838;9.324;2022-08-16T11:25:31;3.57;;;3.23;;
17451;SDS011;8843;48.838;9.324;2022-08-16T11:27:59;4.53;;;4.10;;
17451;SDS011;8843;48.838;9.324;2022-08-16T11:30:27;3.30;;;3.00;;
17451;SDS011;8843;48.838;9.324;2022-08-16T11:32:55;3.77;;;3.37;;
17451;SDS011;8843;48.838;9.324;2022-08-16T11:35:23;4.47;;;3.57;;
17451;SDS011;8843;48.838;9.324;2022-08-16T11:37:53;6.33;;;3.40;;
17451;SDS011;8843;48.838;9.324;2022-08-16T11:40:24;6.30;;;3.63;;
17451;SDS011;8843;48.838;9.324;2022-08-16T11:42:52;3.80;;;3.30;;
17451;SDS011;8843;48.838;9.324;2022-08-16T11:45:20;4.10;;;3.80;;
17451;SDS011;8843;48.838;9.324;2022-08-16T11:47:47;5.40;;;3.60;;
17451;SDS011;8843;48.838;9.324;2022-08-16T11:50:13;3.97;;;3.43;;
17451;SDS011;8843;48.838;9.324;2022-08-16T11:52:41;4.30;;;3.90;;
17451;SDS011;8843;48.838;9.324;2022-08-16T11:55:09;4.57;;;3.60;;
17451;SDS011;8843;48.838;9.324;2022-08-16T11:57:39;3.60;;;3.30;;
17451;SDS011;8843;48.838;9.324;2022-08-16T12:00:09;5.47;;;3.33;;
17451;SDS011;8843;48.838;9.324;2022-08-16T12:02:43;3.77;;;3.20;;
17451;SDS011;8843;48.838;9.324;2022-08-16T12:05:11;3.53;;;3.23;;
17451;SDS011;8843;48.838;9.324;2022-08-16T12:07:39;5.17;;;3.40;;
17451;SDS011;8843;48.838;9.324;2022-08-16T12:10:07;3.60;;;3.17;;
17451;SDS011;8843;48.838;9.324;2022-08-16T12:12:36;5.80;;;3.53;;
17451;SDS011;8843;48.838;9.324;2022-08-16T12:15:05;5.47;;;3.43;;
17451;SDS011;8843;48.838;9.324;2022-08-16T12:17:33;3.77;;;3.47;;
17451;SDS011;8843;48.838;9.324;2022-08-16T12:20:00;4.23;;;3.30;;
17451;SDS011;8843;48.838;9.324;2022-08-16T12:22:27;5.53;;;3.73;;
17451;SDS011;8843;48.838;9.324;2022-08-16T12:24:55;2.93;;;2.73;;
17451;SDS011;8843;48.838;9.324;2022-08-16T12:27:22;3.67;;;3.37;;
17451;SDS011;8843;48.838;9.324;2022-08-16T12:29:50;5.97;;;3.17;;
17451;SDS011;8843;48.838;9.324;2022-08-16T12:32:19;3.70;;;3.10;;
17451;SDS011;8843;48.838;9.324;2022-08-16T12:34:46;3.70;;;3.40;;
17451;SDS011;8843;48.838;9.324;2022-08-16T12:37:13;5.27;;;3.17;;
17451;SDS011;8843;48.838;9.324;2022-08-16T12:39:41;4.60;;;3.47;;
17451;SDS011;8843;48.838;9.324;2022-08-16T12:42:08;6.10;;;3.43;;
17451;SDS011;8843;48.838;9.324;2022-08-16T12:44:35;4.60;;;3.30;;
17451;SDS011;8843;48.838;9.324;2022-08-16T12:47:02;5.77;;;3.30;;
17451;SDS011;8843;48.838;9.324;2022-08-16T12:49:49;3.60;;;3.30;;
17451;SDS011;8843;48.838;9.324;2022-08-16T12:52:16;5.37;;;4.10;;
17451;SDS011;8843;48.838;9.324;2022-08-16T12:54:43;3.80;;;3.50;;
17451;SDS011;8843;48.838;9.324;2022-08-16T12:57:09;3.70;;;3.30;;
17451;SDS011;8843;48.838;9.324;2022-08-16T12:59:37;3.80;;;3.50;;
17451;SDS011;8843;48.838;9.324;2022-08-16T13:02:04;3.60;;;3.10;;
17451;SDS011;8843;48.838;9.324;2022-08-16T13:04:32;3.73;;;3.43;;
17451;SDS011;8843;48.838;9.324;2022-08-16T13:07:01;3.90;;;3.40;;
17451;SDS011;8843;48.838;9.324;2022-08-16T13:09:29;5.70;;;3.53;;
17451;SDS011;8843;48.838;9.324;2022-08-16T13:11:58;3.60;;;3.30;;
17451;SDS011;8843;48.838;9.324;2022-08-16T13:14:31;3.60;;;3.30;;
17451;SDS011;8843;48.838;9.324;2022-08-16T13:17:01;5.07;;;3.47;;
17451;SDS011;8843;48.838;9.324;2022-08-16T13:19:29;4.90;;;3.50;;
17451;SDS011;8843;48.838;9.324;2022-08-16T13:21:55;3.60;;;3.30;;
17451;SDS011;8843;48.838;9.324;2022-08-16T13:24:24;3.83;;;3.43;;
17451;SDS011;8843;48.838;9.324;2022-08-16T13:26:51;4.13;;;3.47;;
17451;SDS011;8843;48.838;9.324;2022-08-16T13:29:18;3.13;;;2.93;;
17451;SDS011;8843;48.838;9.324;2022-08-16T13:31:45;3.93;;;3.53;;
17451;SDS011;8843;48.838;9.324;2022-08-16T13:34:12;3.67;;;3.27;;
17451;SDS011;8843;48.838;9.324;2022-08-16T13:36:39;4.17;;;3.27;;
17451;SDS011;8843;48.838;9.324;2022-08-16T13:39:06;3.77;;;3.20;;
17451;SDS011;8843;48.838;9.324;2022-08-16T13:41:36;3.47;;;3.17;;
17451;SDS011;8843;48.838;9.324;2022-08-16T13:44:03;5.07;;;3.10;;
17451;SDS011;8843;48.838;9.324;2022-08-16T13:46:31;4.93;;;3.17;;
17451;SDS011;8843;48.838;9.324;2022-08-16T13:48:58;5.00;;;3.40;;
17451;SDS011;8843;48.838;9.324;2022-08-16T13:51:25;6.97;;;3.23;;
17451;SDS011;8843;48.838;9.324;2022-08-16T13:53:54;3.90;;;3.10;;
17451;SDS011;8843;48.838;9.324;2022-08-16T13:56:27;4.17;;;2.90;;
17451;SDS011;8843;48.838;9.324;2022-08-16T13:58:58;3.80;;;3.30;;
17451;SDS011;8843;48.838;9.324;2022-08-16T14:01:25;4.30;;;3.10;;
17451;SDS011;8843;48.838;9.324;2022-08-16T14:03:52;3.47;;;3.00;;
17451;SDS011;8843;48.838;9.324;2022-08-16T14:06:20;3.37;;;3.10;;
17451;SDS011;8843;48.838;9.324;2022-08-16T14:08:47;4.93;;;3.10;;
17451;SDS011;8843;48.838;9.324;2022-08-16T14:11:14;6.07;;;3.53;;
17451;SDS011;8843;48.838;9.324;2022-08-16T14:13:41;4.63;;;3.03;;
17451;SDS011;8843;48.838;9.324;2022-08-16T14:16:10;4.00;;;3.70;;
17451;SDS011;8843;48.838;9.324;2022-08-16T14:18:37;3.63;;;3.30;;
17451;SDS011;8843;48.838;9.324;2022-08-16T14:21:04;3.50;;;3.20;;
17451;SDS011;8843;48.838;9.324;2022-08-16T14:23:31;4.50;;;3.40;;
17451;SDS011;8843;48.838;9.324;2022-08-16T14:25:58;3.10;;;2.80;;
17451;SDS011;8843;48.838;9.324;2022-08-16T14:28:26;3.93;;;3.13;;
17451;SDS011;8843;48.838;9.324;2022-08-16T14:30:53;6.77;;;3.30;;
17451;SDS011;8843;48.838;9.324;2022-08-16T14:33:22;3.87;;;3.37;;
17451;SDS011;8843;48.838;9.324;2022-08-16T14:35:48;3.10;;;2.90;;
17451;SDS011;8843;48.838;9.324;2022-08-16T14:38:15;5.37;;;3.20;;
17451;SDS011;8843;48.838;9.324;2022-08-16T14:40:44;4.73;;;3.27;;
17451;SDS011;8843;48.838;9.324;2022-08-16T14:43:11;5.23;;;3.30;;
17451;SDS011;8843;48.838;9.324;2022-08-16T14:45:38;4.73;;;3.70;;
17451;SDS011;8843;48.838;9.324;2022-08-16T14:48:05;4.60;;;3.60;;
17451;SDS011;8843;48.838;9.324;2022-08-16T14:50:33;4.40;;;3.27;;
17451;SDS011;8843;48.838;9.324;2022-08-16T14:53:02;3.47;;;3.17;;
17451;SDS011;8843;48.838;9.324;2022-08-16T14:55:31;3.40;;;3.00;;
17451;SDS011;8843;48.838;9.324;2022-08-16T14:58:00;5.30;;;3.67;;
17451;SDS011;8843;48.838;9.324;2022-08-16T15:00:28;4.03;;;3.63;;
17451;SDS011;8843;48.838;9.324;2022-08-16T15:02:57;3.50;;;3.30;;
17451;SDS011;8843;48.838;9.324;2022-08-16T15:05:26;4.07;;;3.50;;